Time;durP1;ratioP1;P1;durP2;ratioP2;P2;SDS_P1;SDS_P2;PMS_P1;PMS_P2;Temp;Humidity;BMP_temperature;BMP_pressure;BME280_temperature;BME280_humidity;BME280_pressure;Samples;Min_cycle;Max_cycle;Signal;HPM_P1;HPM_P2
2024/03/25 00:02:00;;;;;;;1.73;1.63;;;26.00;1.00;;;;;;2612843;39;20556;-64
2024/03/25 00:04:26;;;;;;;1.80;1.70;;;26.00;1.00;;;;;;2611836;47;20306;-65
2024/03/25 00:06:53;;;;;;;1.70;1.60;;;25.90;1.00;;;;;;2611379;47;20171;-64
2024/03/25 00:09:20;;;;;;;1.93;1.83;;;25.90;1.00;;;;;;2612188;54;20155;-63
2024/03/25 00:11:46;;;;;;;1.80;1.70;;;25.80;1.00;;;;;;2611853;54;20407;-65
2024/03/25 00:14:12;;;;;;;1.90;1.80;;;25.80;1.00;;;;;;2611941;54;20459;-65
2024/03/25 00:16:37;;;;;;;1.60;1.50;;;25.70;1.00;;;;;;2612076;47;20170;-63
2024/03/25 00:19:03;;;;;;;1.70;1.60;;;25.70;1.00;;;;;;2612582;39;20969;-64
2024/03/25 00:21:29;;;;;;;1.70;1.60;;;25.60;1.00;;;;;;2613251;47;20154;-64
2024/03/25 00:23:56;;;;;;;1.90;1.80;;;25.60;1.00;;;;;;2612157;47;20456;-62
2024/03/25 00:26:23;;;;;;;1.97;1.87;;;25.50;1.00;;;;;;2611827;54;20154;-65
2024/03/25 00:28:49;;;;;;;1.70;1.60;;;25.50;1.00;;;;;;2612259;54;20470;-66
2024/03/25 00:31:15;;;;;;;2.57;2.47;;;25.40;1.00;;;;;;2612115;47;20486;-65
2024/03/25 00:33:40;;;;;;;2.20;2.10;;;25.40;1.00;;;;;;2612395;54;20447;-65
2024/03/25 00:36:07;;;;;;;2.33;2.23;;;25.40;1.00;;;;;;2612098;47;20677;-65
2024/03/25 00:38:33;;;;;;;2.20;2.10;;;25.30;1.00;;;;;;2612954;54;20162;-66
2024/03/25 00:40:58;;;;;;;2.53;2.43;;;25.30;1.00;;;;;;2612267;54;20511;-67
2024/03/25 00:43:24;;;;;;;2.67;2.57;;;25.20;1.00;;;;;;2612408;39;20572;-66
2024/03/25 00:45:50;;;;;;;2.30;2.20;;;25.20;1.00;;;;;;2612127;47;20162;-65
2024/03/25 00:48:15;;;;;;;2.50;2.40;;;25.10;1.00;;;;;;2612274;47;20163;-66
2024/03/25 00:50:41;;;;;;;2.50;2.40;;;25.10;1.00;;;;;;2611905;47;20227;-65
2024/03/25 00:53:07;;;;;;;2.33;2.23;;;25.10;1.00;;;;;;2611445;54;20198;-64
2024/03/25 00:55:35;;;;;;;2.23;2.13;;;25.10;1.00;;;;;;2611642;54;20166;-65
2024/03/25 00:58:02;;;;;;;2.60;2.50;;;25.00;1.00;;;;;;2611431;54;20415;-66
2024/03/25 01:00:28;;;;;;;2.50;2.40;;;25.00;1.00;;;;;;2610910;54;20400;-66
2024/03/25 01:02:53;;;;;;;2.60;2.50;;;24.90;1.00;;;;;;2610667;47;20420;-65
2024/03/25 01:05:19;;;;;;;2.50;2.40;;;24.90;1.00;;;;;;2611506;47;20755;-67
2024/03/25 01:07:45;;;;;;;2.43;2.33;;;24.90;1.00;;;;;;2611203;54;20241;-65
2024/03/25 01:10:11;;;;;;;2.50;2.40;;;24.90;1.00;;;;;;2611619;54;20219;-65
2024/03/25 01:12:36;;;;;;;2.20;2.10;;;24.90;1.00;;;;;;2610353;54;20742;-66
2024/03/25 01:15:03;;;;;;;2.10;2.00;;;24.80;1.00;;;;;;2610985;54;20165;-65
2024/03/25 01:17:29;;;;;;;2.40;2.30;;;24.80;1.00;;;;;;2610859;54;20200;-66
2024/03/25 01:19:55;;;;;;;2.47;2.37;;;24.80;1.00;;;;;;2611158;54;20395;-66
2024/03/25 01:22:20;;;;;;;4.20;4.00;;;24.70;1.00;;;;;;2610601;47;20183;-64
2024/03/25 01:24:46;;;;;;;2.60;2.50;;;24.70;1.00;;;;;;2610834;39;20686;-66
2024/03/25 01:27:12;;;;;;;2.80;2.70;;;24.70;1.00;;;;;;2611492;54;20415;-66
2024/03/25 01:29:38;;;;;;;3.47;3.37;;;24.60;1.00;;;;;;2611156;54;20170;-66
2024/03/25 01:32:05;;;;;;;2.50;2.40;;;24.60;1.00;;;;;;2611222;54;20166;-65
2024/03/25 01:34:31;;;;;;;2.63;2.53;;;24.60;1.00;;;;;;2610636;54;20159;-70
2024/03/25 01:36:57;;;;;;;2.63;2.53;;;24.60;1.00;;;;;;2611184;54;20531;-70
2024/03/25 01:39:24;;;;;;;2.60;2.50;;;24.50;1.00;;;;;;2612125;47;20302;-71
2024/03/25 01:41:50;;;;;;;2.70;2.60;;;24.50;1.00;;;;;;2611320;54;20395;-70
2024/03/25 01:44:16;;;;;;;2.20;2.10;;;24.50;1.00;;;;;;2612152;54;20419;-65
2024/03/25 01:46:42;;;;;;;2.50;2.40;;;24.50;1.00;;;;;;2611535;47;20427;-66
2024/03/25 01:49:09;;;;;;;2.50;2.40;;;24.50;1.00;;;;;;2611497;54;20414;-65
2024/03/25 01:51:36;;;;;;;2.50;2.40;;;24.40;1.00;;;;;;2611573;54;20442;-65
2024/03/25 01:54:03;;;;;;;2.40;2.30;;;24.40;1.00;;;;;;2611346;39;20836;-67
2024/03/25 01:56:32;;;;;;;2.50;2.40;;;24.40;1.00;;;;;;2611999;47;20438;-67
2024/03/25 01:58:58;;;;;;;2.70;2.60;;;24.40;1.00;;;;;;2610637;54;20403;-67
2024/03/25 02:01:24;;;;;;;2.67;2.57;;;24.40;1.00;;;;;;2612229;39;20899;-66
2024/03/25 02:03:50;;;;;;;2.70;2.60;;;24.30;1.00;;;;;;2610422;39;20960;-66
2024/03/25 02:06:18;;;;;;;2.87;2.77;;;24.30;1.00;;;;;;2612107;47;20503;-71
2024/03/25 02:08:44;;;;;;;2.67;2.57;;;24.30;1.00;;;;;;2611038;48;20195;-70
2024/03/25 02:11:12;;;;;;;2.40;2.30;;;24.30;1.00;;;;;;2610761;54;21194;-70
2024/03/25 02:13:38;;;;;;;2.70;2.60;;;24.30;1.00;;;;;;2612038;54;20162;-69
2024/03/25 02:16:04;;;;;;;3.20;3.10;;;24.20;1.00;;;;;;2610070;54;20423;-71
2024/03/25 02:18:30;;;;;;;2.73;2.63;;;24.20;1.00;;;;;;2611957;54;20535;-69
2024/03/25 02:20:59;;;;;;;2.53;2.43;;;24.20;1.00;;;;;;2611006;54;20507;-71
2024/03/25 02:23:26;;;;;;;2.77;2.67;;;24.20;1.00;;;;;;2611263;54;20422;-70
2024/03/25 02:25:55;;;;;;;2.53;2.43;;;24.20;1.00;;;;;;2611025;54;20558;-70
2024/03/25 02:28:21;;;;;;;2.33;2.23;;;24.10;1.00;;;;;;2611236;47;21220;-70
2024/03/25 02:30:47;;;;;;;8.80;6.17;;;24.10;1.00;;;;;;2612782;54;20431;-70
2024/03/25 02:33:14;;;;;;;2.60;2.50;;;24.10;1.00;;;;;;2611774;47;20190;-70
2024/03/25 02:35:41;;;;;;;3.97;3.87;;;24.10;1.00;;;;;;2611317;54;20427;-71
2024/03/25 02:38:08;;;;;;;2.60;2.50;;;24.10;1.00;;;;;;2611090;54;20475;-69
2024/03/25 02:40:35;;;;;;;2.30;2.20;;;24.10;1.00;;;;;;2611434;54;20437;-70
2024/03/25 02:43:00;;;;;;;2.50;2.40;;;24.00;1.00;;;;;;2609055;54;20559;-70
2024/03/25 02:45:26;;;;;;;2.90;2.80;;;24.00;1.00;;;;;;2610339;47;20423;-63
2024/03/25 02:47:53;;;;;;;2.50;2.40;;;24.00;1.00;;;;;;2611954;39;20685;-64
2024/03/25 02:50:19;;;;;;;2.47;2.37;;;24.00;1.00;;;;;;2611534;47;20177;-63
2024/03/25 02:52:44;;;;;;;2.40;2.30;;;24.00;1.00;;;;;;2610561;54;21565;-65
2024/03/25 02:55:10;;;;;;;2.60;2.50;;;24.00;1.00;;;;;;2610893;47;20428;-66
2024/03/25 02:57:36;;;;;;;2.60;2.50;;;24.00;1.00;;;;;;2611137;47;20166;-66
2024/03/25 03:00:02;;;;;;;2.40;2.30;;;24.00;1.00;;;;;;2611746;47;20162;-66
2024/03/25 03:02:27;;;;;;;2.70;2.60;;;23.90;1.00;;;;;;2611437;54;20242;-66
2024/03/25 03:04:53;;;;;;;2.37;2.27;;;23.90;1.00;;;;;;2609922;54;20412;-66
2024/03/25 03:07:19;;;;;;;2.50;2.40;;;23.90;1.00;;;;;;2611550;54;20143;-65
2024/03/25 03:09:45;;;;;;;2.47;2.37;;;23.90;1.00;;;;;;2611349;54;20177;-66
2024/03/25 03:12:10;;;;;;;2.53;2.43;;;23.90;1.00;;;;;;2611160;54;20334;-65
2024/03/25 03:14:36;;;;;;;2.40;2.30;;;23.90;1.00;;;;;;2610892;54;20139;-62
2024/03/25 03:17:04;;;;;;;2.10;2.00;;;23.80;1.00;;;;;;2610840;47;20162;-62
2024/03/25 03:19:31;;;;;;;2.20;2.10;;;23.90;1.00;;;;;;2610693;54;20157;-62
2024/03/25 03:21:57;;;;;;;2.50;2.40;;;23.80;1.00;;;;;;2610357;39;20939;-64
2024/03/25 03:24:22;;;;;;;2.50;2.40;;;23.80;1.00;;;;;;2610689;49;20411;-62
2024/03/25 03:26:49;;;;;;;2.40;2.30;;;23.80;1.00;;;;;;2611964;54;20403;-61
2024/03/25 03:29:15;;;;;;;2.90;2.80;;;23.80;1.00;;;;;;2612080;54;20984;-62
2024/03/25 03:31:41;;;;;;;2.70;2.60;;;23.80;1.00;;;;;;2611883;54;20422;-61
2024/03/25 03:34:07;;;;;;;2.80;2.70;;;23.80;1.00;;;;;;2610832;54;20429;-63
2024/03/25 03:36:33;;;;;;;2.93;2.83;;;23.80;1.00;;;;;;2611692;47;20427;-61
2024/03/25 03:38:58;;;;;;;2.90;2.80;;;23.70;1.00;;;;;;2612762;54;20150;-61
2024/03/25 03:41:24;;;;;;;2.87;2.77;;;23.70;1.00;;;;;;2611996;47;20195;-62
2024/03/25 03:43:50;;;;;;;3.10;3.00;;;23.70;1.00;;;;;;2611178;47;20184;-62
2024/03/25 03:46:16;;;;;;;3.30;3.20;;;23.70;1.00;;;;;;2610641;54;20253;-61
2024/03/25 03:48:41;;;;;;;2.43;2.33;;;23.70;1.00;;;;;;2612178;47;20158;-62
2024/03/25 03:51:08;;;;;;;2.70;2.60;;;23.70;1.00;;;;;;2612022;54;20184;-62
2024/03/25 03:53:35;;;;;;;2.43;2.33;;;23.70;1.00;;;;;;2611824;47;20198;-61
2024/03/25 03:56:04;;;;;;;2.47;2.37;;;23.70;1.00;;;;;;2612180;47;20448;-70
2024/03/25 03:58:29;;;;;;;2.67;2.57;;;23.70;1.00;;;;;;2612110;54;20402;-70
2024/03/25 04:00:55;;;;;;;2.47;2.37;;;23.70;1.00;;;;;;2612329;47;20449;-72
2024/03/25 04:03:21;;;;;;;2.60;2.50;;;23.70;1.00;;;;;;2611786;54;20150;-70
2024/03/25 04:05:47;;;;;;;2.70;2.60;;;23.70;1.00;;;;;;2612033;54;20177;-61
2024/03/25 04:08:13;;;;;;;2.60;2.50;;;23.70;1.00;;;;;;2611364;46;20435;-61
2024/03/25 04:10:40;;;;;;;2.70;2.60;;;23.70;1.00;;;;;;2611629;47;20672;-60
2024/03/25 04:13:07;;;;;;;3.20;3.10;;;23.70;1.00;;;;;;2611520;39;20637;-61
2024/03/25 04:15:34;;;;;;;3.00;2.90;;;23.60;1.00;;;;;;2610878;54;21004;-61
2024/03/25 04:18:00;;;;;;;2.90;2.80;;;23.60;1.00;;;;;;2612230;39;20809;-61
2024/03/25 04:20:29;;;;;;;2.70;2.60;;;23.60;1.00;;;;;;2611751;54;20420;-61
2024/03/25 04:22:56;;;;;;;2.73;2.63;;;23.60;1.00;;;;;;2609489;54;20407;-59
2024/03/25 04:25:22;;;;;;;3.07;2.97;;;23.60;1.00;;;;;;2611331;54;20414;-64
2024/03/25 04:27:48;;;;;;;3.10;3.00;;;23.50;1.00;;;;;;2611875;39;20822;-65
2024/03/25 04:30:14;;;;;;;2.87;2.77;;;23.50;1.00;;;;;;2612235;47;20415;-64
2024/03/25 04:32:40;;;;;;;3.20;3.10;;;23.50;1.00;;;;;;2611953;47;20415;-66
2024/03/25 04:35:07;;;;;;;2.80;2.70;;;23.50;1.00;;;;;;2610980;54;20438;-65
2024/03/25 04:37:34;;;;;;;3.00;2.90;;;23.50;1.00;;;;;;2612017;54;20408;-66
2024/03/25 04:40:00;;;;;;;2.90;2.80;;;23.50;1.00;;;;;;2611236;39;21803;-66
2024/03/25 04:42:26;;;;;;;3.03;2.93;;;23.50;1.00;;;;;;2611320;54;20404;-65
2024/03/25 04:44:52;;;;;;;2.70;2.60;;;23.50;1.00;;;;;;2611736;54;20430;-66
2024/03/25 04:47:18;;;;;;;2.60;2.50;;;23.50;1.00;;;;;;2611535;54;20162;-65
2024/03/25 04:49:44;;;;;;;2.70;2.60;;;23.50;1.00;;;;;;2610150;54;20248;-66
2024/03/25 04:52:16;;;;;;;2.83;2.73;;;23.40;1.00;;;;;;2611362;54;20428;-64
2024/03/25 04:54:43;;;;;;;2.90;2.80;;;23.40;1.00;;;;;;2611666;54;20473;-65
2024/03/25 04:57:08;;;;;;;2.30;2.20;;;23.40;1.00;;;;;;2611776;47;20408;-65
2024/03/25 04:59:34;;;;;;;2.40;2.30;;;23.40;1.00;;;;;;2610918;54;20452;-66
2024/03/25 05:02:00;;;;;;;2.80;2.70;;;23.40;1.00;;;;;;2612060;54;20225;-66
2024/03/25 05:04:26;;;;;;;2.80;2.70;;;23.40;1.00;;;;;;2610847;54;20174;-71
2024/03/25 05:06:51;;;;;;;2.70;2.60;;;23.40;1.00;;;;;;2612076;54;20430;-71
2024/03/25 05:09:18;;;;;;;1.90;1.80;;;23.40;1.00;;;;;;2612150;47;20162;-71
2024/03/25 05:11:44;;;;;;;2.10;2.00;;;23.40;1.00;;;;;;2613295;54;20173;-71
2024/03/25 05:14:10;;;;;;;2.47;2.37;;;23.40;1.00;;;;;;2612875;47;20423;-60
2024/03/25 05:16:36;;;;;;;2.33;2.23;;;23.40;1.00;;;;;;2611564;54;20548;-61
2024/03/25 05:19:03;;;;;;;2.00;1.90;;;23.40;1.00;;;;;;2611110;54;20178;-61
2024/03/25 05:21:32;;;;;;;2.40;2.30;;;23.40;1.00;;;;;;2611173;54;20407;-61
2024/03/25 05:23:58;;;;;;;2.60;2.50;;;23.50;1.00;;;;;;2610701;54;20431;-61
2024/03/25 05:26:24;;;;;;;2.70;2.60;;;23.40;1.00;;;;;;2611494;54;20440;-61
2024/03/25 05:28:54;;;;;;;2.80;2.70;;;23.40;1.00;;;;;;2611746;47;20435;-62
2024/03/25 05:31:20;;;;;;;2.40;2.30;;;23.40;1.00;;;;;;2611396;54;20532;-62
2024/03/25 05:33:45;;;;;;;2.67;2.57;;;23.30;1.00;;;;;;2611086;54;20435;-61
2024/03/25 05:36:11;;;;;;;2.40;2.30;;;23.40;1.00;;;;;;2611135;47;20169;-61
2024/03/25 05:38:38;;;;;;;2.60;2.50;;;23.30;1.00;;;;;;2611158;54;20759;-59
2024/03/25 05:41:04;;;;;;;2.60;2.50;;;23.30;1.00;;;;;;2610956;54;20158;-61
2024/03/25 05:43:29;;;;;;;2.43;2.33;;;23.30;1.00;;;;;;2610224;54;20415;-60
2024/03/25 05:45:56;;;;;;;2.70;2.60;;;23.30;1.00;;;;;;2611153;54;20439;-60
2024/03/25 05:48:25;;;;;;;2.60;2.50;;;23.30;1.00;;;;;;2611141;54;20170;-61
2024/03/25 05:51:05;;;;;;;2.10;2.00;;;23.30;1.00;;;;;;2609276;54;20426;-60
2024/03/25 05:53:31;;;;;;;2.40;2.30;;;23.30;1.00;;;;;;2610084;47;20454;-61
2024/03/25 05:55:59;;;;;;;2.30;2.20;;;23.30;1.00;;;;;;2610723;54;20534;-61
2024/03/25 05:58:25;;;;;;;2.13;2.03;;;23.30;1.00;;;;;;2610495;54;20407;-61
2024/03/25 06:00:52;;;;;;;2.23;2.13;;;23.30;1.00;;;;;;2609714;54;20407;-60
2024/03/25 06:03:19;;;;;;;2.60;2.50;;;23.30;1.00;;;;;;2609895;47;20508;-61
2024/03/25 06:05:45;;;;;;;2.40;2.30;;;23.30;1.00;;;;;;2611403;54;20399;-61
2024/03/25 06:08:26;;;;;;;2.17;2.07;;;23.30;1.00;;;;;;2611481;39;20785;-62
2024/03/25 06:11:00;;;;;;;1.93;1.83;;;23.30;1.00;;;;;;2609556;54;20419;-61
2024/03/25 06:13:25;;;;;;;0.90;0.90;;;23.30;1.00;;;;;;2609551;47;20426;-62
2024/03/25 06:15:51;;;;;;;0.80;0.80;;;23.30;1.00;;;;;;2609735;54;20411;-62
2024/03/25 06:18:17;;;;;;;0.80;0.80;;;23.30;1.00;;;;;;2608546;54;20181;-62
2024/03/25 06:20:43;;;;;;;0.80;0.80;;;23.30;1.00;;;;;;2609696;54;20174;-63
2024/03/25 06:23:09;;;;;;;0.80;0.80;;;23.30;1.00;;;;;;2609990;54;20189;-63
2024/03/25 06:25:35;;;;;;;0.80;0.80;;;23.30;1.00;;;;;;2608890;54;20161;-63
2024/03/25 06:28:01;;;;;;;1.10;1.10;;;23.30;1.00;;;;;;2610464;39;20617;-62
2024/03/25 06:35:55;;;;;;;0.67;0.60;;;23.80;1.00;;;;;;2609590;54;20531;-62
2024/03/25 06:38:21;;;;;;;0.70;0.60;;;24.10;1.00;;;;;;2609404;54;21016;-63
2024/03/25 06:40:47;;;;;;;0.60;0.40;;;24.20;1.00;;;;;;2610730;54;20177;-63
2024/03/25 06:43:16;;;;;;;0.60;0.40;;;24.20;1.00;;;;;;2610315;39;21094;-63
2024/03/25 06:45:41;;;;;;;1.00;1.00;;;24.00;1.00;;;;;;2608921;54;20158;-65
2024/03/25 06:48:07;;;;;;;0.90;0.90;;;24.00;1.00;;;;;;2608430;54;20407;-67
2024/03/25 06:50:33;;;;;;;0.70;0.67;;;24.20;1.00;;;;;;2609650;54;20214;-61
2024/03/25 06:52:59;;;;;;;0.70;0.70;;;24.30;1.00;;;;;;2609022;54;20923;-61
2024/03/25 06:55:27;;;;;;;0.70;0.70;;;24.50;1.00;;;;;;2610636;54;20167;-64
2024/03/25 06:57:53;;;;;;;0.70;0.70;;;24.60;1.00;;;;;;2610176;54;20166;-64
2024/03/25 07:00:22;;;;;;;0.80;0.80;;;24.60;1.00;;;;;;2609447;54;21125;-64
2024/03/25 07:02:48;;;;;;;0.70;0.70;;;24.50;1.00;;;;;;2609191;54;20151;-64
2024/03/25 07:05:13;;;;;;;0.60;0.40;;;24.60;1.00;;;;;;2608875;47;20431;-64
2024/03/25 07:07:39;;;;;;;2.30;2.20;;;24.50;1.00;;;;;;2605865;54;20445;-64
2024/03/25 07:10:05;;;;;;;0.60;0.50;;;24.30;1.00;;;;;;2609144;54;20759;-64
2024/03/25 07:12:31;;;;;;;0.60;0.43;;;24.10;1.00;;;;;;2608580;54;20166;-64
2024/03/25 07:14:57;;;;;;;0.60;0.40;;;24.00;1.00;;;;;;2609784;54;21032;-64
2024/03/25 07:17:22;;;;;;;0.60;0.40;;;23.20;1.00;;;;;;2608222;47;20591;-65
2024/03/25 07:19:48;;;;;;;0.60;0.50;;;23.00;1.00;;;;;;2610069;54;20155;-64
2024/03/25 07:22:14;;;;;;;0.60;0.50;;;23.10;1.00;;;;;;2610397;54;20171;-62
2024/03/25 07:24:39;;;;;;;0.60;0.47;;;23.20;1.00;;;;;;2610535;54;20171;-63
2024/03/25 07:27:06;;;;;;;0.60;0.40;;;23.30;1.00;;;;;;2609869;54;20157;-64
2024/03/25 07:29:31;;;;;;;0.60;0.50;;;23.30;1.00;;;;;;2609941;54;20250;-63
2024/03/25 07:31:57;;;;;;;0.60;0.40;;;23.40;1.00;;;;;;2610118;54;20440;-63
2024/03/25 07:34:23;;;;;;;0.60;0.40;;;23.40;1.00;;;;;;2609802;54;20722;-64
2024/03/25 07:36:48;;;;;;;0.60;0.40;;;23.50;1.00;;;;;;2610873;47;20171;-63
2024/03/25 07:39:15;;;;;;;0.60;0.40;;;23.50;1.00;;;;;;2610585;54;20179;-64
2024/03/25 07:41:40;;;;;;;0.60;0.40;;;23.50;1.00;;;;;;2610858;54;20146;-64
2024/03/25 07:44:06;;;;;;;0.60;0.40;;;23.50;1.00;;;;;;2610286;47;20449;-61
2024/03/25 07:46:32;;;;;;;0.60;0.40;;;23.50;1.00;;;;;;2610874;39;20631;-59
2024/03/25 07:48:57;;;;;;;0.60;0.50;;;23.50;1.00;;;;;;2610181;54;20169;-59
2024/03/25 07:51:23;;;;;;;0.60;0.40;;;23.50;1.00;;;;;;2610425;54;20155;-59
2024/03/25 07:53:49;;;;;;;0.60;0.40;;;23.50;1.00;;;;;;2610097;47;20460;-60
2024/03/25 07:56:18;;;;;;;0.60;0.50;;;23.60;1.00;;;;;;2611176;39;20670;-62
2024/03/25 07:58:44;;;;;;;0.60;0.40;;;23.60;1.00;;;;;;2607490;54;20676;-62
2024/03/25 08:01:10;;;;;;;0.60;0.40;;;23.60;1.00;;;;;;2609896;39;20820;-60
2024/03/25 08:03:35;;;;;;;0.60;0.50;;;23.60;1.00;;;;;;2608172;47;20173;-61
2024/03/25 08:06:01;;;;;;;0.60;0.50;;;23.60;1.00;;;;;;2609435;39;22138;-60
2024/03/25 08:08:27;;;;;;;0.60;0.60;;;23.60;1.00;;;;;;2610311;54;20209;-60
2024/03/25 08:10:52;;;;;;;0.60;0.40;;;23.60;1.00;;;;;;2610966;39;20560;-60
2024/03/25 08:13:22;;;;;;;0.60;0.50;;;23.60;1.00;;;;;;2609542;54;20159;-61
2024/03/25 08:15:48;;;;;;;0.60;0.40;;;23.60;1.00;;;;;;2611260;54;20186;-61
2024/03/25 08:18:13;;;;;;;0.60;0.40;;;23.60;1.00;;;;;;2611714;39;20901;-61
2024/03/25 08:20:39;;;;;;;0.60;0.40;;;23.60;1.00;;;;;;2611162;54;20158;-59
2024/03/25 08:23:05;;;;;;;0.60;0.40;;;23.60;1.00;;;;;;2611087;54;20181;-61
2024/03/25 08:25:31;;;;;;;0.60;0.40;;;23.60;1.00;;;;;;2609931;54;20209;-60
2024/03/25 08:27:58;;;;;;;0.60;0.50;;;23.60;1.00;;;;;;2611185;54;20170;-59
2024/03/25 08:30:24;;;;;;;0.60;0.40;;;23.60;1.00;;;;;;2612345;54;20494;-60
2024/03/25 08:32:50;;;;;;;0.60;0.40;;;23.50;1.00;;;;;;2610894;47;20431;-60
2024/03/25 08:35:15;;;;;;;0.60;0.40;;;23.60;1.00;;;;;;2610604;39;20668;-60
2024/03/25 08:37:41;;;;;;;0.60;0.50;;;23.60;1.00;;;;;;2610180;54;20163;-60
2024/03/25 08:40:08;;;;;;;0.60;0.50;;;23.60;1.00;;;;;;2610606;54;20170;-59
2024/03/25 08:42:33;;;;;;;0.60;0.40;;;23.60;1.00;;;;;;2611036;39;20620;-60
2024/03/25 08:44:59;;;;;;;0.60;0.40;;;23.60;1.00;;;;;;2611252;54;20454;-61
2024/03/25 08:47:25;;;;;;;0.60;0.40;;;23.60;1.00;;;;;;2610749;54;20688;-60
2024/03/25 08:49:51;;;;;;;0.60;0.50;;;23.60;1.00;;;;;;2611550;39;20655;-60
2024/03/25 08:52:16;;;;;;;0.60;0.50;;;23.60;1.00;;;;;;2611026;47;20191;-60
2024/03/25 08:54:42;;;;;;;0.60;0.40;;;23.60;1.00;;;;;;2611210;51;20237;-63
2024/03/25 08:57:08;;;;;;;0.60;0.50;;;23.60;1.00;;;;;;2611845;54;20200;-63
2024/03/25 08:59:33;;;;;;;0.60;0.50;;;23.60;1.00;;;;;;2609831;39;20783;-63
2024/03/25 09:01:59;;;;;;;0.60;0.47;;;23.60;1.00;;;;;;2609243;54;20182;-63
2024/03/25 09:04:25;;;;;;;0.60;0.40;;;23.50;1.00;;;;;;2610599;47;20178;-62
2024/03/25 09:06:50;;;;;;;0.60;0.50;;;23.50;1.00;;;;;;2611507;54;20166;-61
2024/03/25 09:12:00;;;;;;;0.60;0.50;;;23.50;1.00;;;;;;2610959;54;20716;-62
2024/03/25 09:14:26;;;;;;;0.60;0.47;;;23.50;1.00;;;;;;2610932;54;20424;-61
2024/03/25 09:16:51;;;;;;;0.60;0.40;;;23.50;1.00;;;;;;2609958;54;20680;-61
2024/03/25 09:19:17;;;;;;;0.60;0.40;;;23.50;1.00;;;;;;2611357;39;20642;-62
2024/03/25 09:21:43;;;;;;;0.60;0.40;;;23.50;1.00;;;;;;2610081;54;20183;-62
2024/03/25 09:24:08;;;;;;;0.60;0.40;;;23.50;1.00;;;;;;2611034;54;20758;-61
2024/03/25 09:26:34;;;;;;;0.60;0.40;;;23.50;1.00;;;;;;2611624;54;20688;-62
2024/03/25 09:29:00;;;;;;;0.60;0.40;;;23.50;1.00;;;;;;2611813;54;20680;-61
2024/03/25 09:31:26;;;;;;;0.60;0.40;;;23.50;1.00;;;;;;2610403;54;20151;-61
2024/03/25 09:33:52;;;;;;;0.60;0.50;;;23.60;1.00;;;;;;2611389;54;20511;-61
2024/03/25 09:36:18;;;;;;;0.60;0.40;;;23.60;1.00;;;;;;2611703;54;20473;-61
2024/03/25 09:38:44;;;;;;;0.60;0.40;;;23.60;1.00;;;;;;2611130;39;20560;-61
2024/03/25 09:41:09;;;;;;;0.63;0.60;;;23.60;1.00;;;;;;2611331;54;20170;-62
2024/03/25 09:43:45;;;;;;;0.60;0.50;;;23.60;1.00;;;;;;2608887;54;20178;-62
2024/03/25 09:46:11;;;;;;;0.60;0.50;;;23.70;1.00;;;;;;2610174;39;20620;-59
2024/03/25 09:48:37;;;;;;;0.60;0.40;;;23.80;1.00;;;;;;2610015;54;21182;-61
2024/03/25 09:51:05;;;;;;;0.60;0.47;;;23.90;1.00;;;;;;2610714;54;20954;-62
2024/03/25 09:53:31;;;;;;;0.60;0.50;;;23.90;1.00;;;;;;2611783;54;20466;-61
2024/03/25 09:55:57;;;;;;;0.60;0.40;;;23.80;1.00;;;;;;2611896;54;20439;-61
2024/03/25 09:58:25;;;;;;;0.60;0.50;;;23.80;1.00;;;;;;2611129;54;20427;-62
2024/03/25 10:00:50;;;;;;;0.60;0.50;;;23.80;1.00;;;;;;2611569;54;20435;-62
2024/03/25 10:03:16;;;;;;;0.60;0.50;;;23.80;1.00;;;;;;2609801;54;20415;-61
2024/03/25 10:05:42;;;;;;;0.60;0.50;;;23.90;1.00;;;;;;2612435;54;20187;-64
2024/03/25 10:08:08;;;;;;;0.60;0.43;;;24.00;1.00;;;;;;2612449;39;20567;-64
2024/03/25 10:10:37;;;;;;;0.60;0.50;;;24.00;1.00;;;;;;2611647;54;20238;-63
2024/03/25 10:13:06;;;;;;;0.60;0.50;;;24.00;1.00;;;;;;2611119;47;20177;-64
2024/03/25 10:15:32;;;;;;;0.60;0.50;;;24.00;1.00;;;;;;2611943;54;20503;-62
2024/03/25 10:17:58;;;;;;;0.60;0.30;;;24.00;1.00;;;;;;2611898;39;20839;-65
2024/03/25 10:20:25;;;;;;;0.60;0.40;;;24.20;1.00;;;;;;2611916;47;20423;-61
2024/03/25 10:22:51;;;;;;;0.60;0.40;;;24.50;1.00;;;;;;2612484;54;20494;-59
2024/03/25 10:25:26;;;;;;;0.60;0.30;;;24.60;1.00;;;;;;2611009;54;20438;-59
2024/03/25 10:28:02;;;;;;;0.60;0.40;;;24.70;1.00;;;;;;2612020;54;20168;-61
2024/03/25 10:30:29;;;;;;;0.60;0.40;;;24.70;1.00;;;;;;2611337;54;21008;-61
2024/03/25 10:33:05;;;;;;;0.60;0.40;;;24.70;1.00;;;;;;2611096;47;20414;-61
2024/03/25 10:35:33;;;;;;;0.60;0.40;;;24.70;1.00;;;;;;2611989;47;20418;-61
2024/03/25 10:38:03;;;;;;;0.60;0.40;;;24.70;1.00;;;;;;2612579;39;20921;-61
2024/03/25 10:40:39;;;;;;;0.60;0.40;;;24.70;1.00;;;;;;2611499;54;20411;-61
2024/03/25 10:43:10;;;;;;;0.60;0.40;;;24.70;1.00;;;;;;2610412;54;20474;-61
2024/03/25 10:45:40;;;;;;;0.60;0.40;;;24.70;1.00;;;;;;2610913;54;20440;-62
2024/03/25 10:48:30;;;;;;;0.60;0.40;;;24.70;1.00;;;;;;2611111;54;20411;-60
2024/03/25 10:50:56;;;;;;;0.60;0.37;;;24.70;1.00;;;;;;2611421;54;20435;-63
2024/03/25 10:53:24;;;;;;;0.60;0.40;;;24.70;1.00;;;;;;2611979;39;20805;-60
2024/03/25 10:55:53;;;;;;;0.60;0.40;;;24.80;1.00;;;;;;2611114;54;21077;-59
2024/03/25 10:58:21;;;;;;;0.60;0.40;;;24.90;1.00;;;;;;2611622;39;20954;-60
2024/03/25 11:00:48;;;;;;;0.60;0.40;;;24.90;1.00;;;;;;2611651;54;20410;-61
2024/03/25 11:03:15;;;;;;;0.90;0.40;;;24.90;1.00;;;;;;2611117;47;20424;-60
2024/03/25 11:05:41;;;;;;;0.60;0.50;;;25.10;1.00;;;;;;2610503;54;21009;-61
2024/03/25 11:08:11;;;;;;;0.67;0.60;;;25.00;1.00;;;;;;2609925;54;20411;-60
2024/03/25 11:10:41;;;;;;;0.70;0.70;;;25.00;1.00;;;;;;2612095;54;20147;-60
2024/03/25 11:13:14;;;;;;;0.60;0.30;;;25.00;1.00;;;;;;2611326;54;20416;-61
2024/03/25 11:15:44;;;;;;;0.60;0.40;;;25.00;1.00;;;;;;2611381;54;20418;-66
2024/03/25 11:18:16;;;;;;;0.60;0.40;;;25.00;1.00;;;;;;2611246;47;20411;-63
2024/03/25 11:20:42;;;;;;;0.60;0.40;;;25.10;1.00;;;;;;2611128;54;20440;-62
2024/03/25 11:23:12;;;;;;;0.60;0.40;;;25.10;1.00;;;;;;2611597;54;20988;-62
2024/03/25 11:25:39;;;;;;;0.60;0.40;;;25.20;1.00;;;;;;2612316;39;20855;-60
2024/03/25 11:28:06;;;;;;;0.60;0.40;;;25.20;1.00;;;;;;2611933;47;20454;-59
2024/03/25 11:30:32;;;;;;;0.60;0.40;;;25.30;1.00;;;;;;2610999;54;20410;-59
2024/03/25 11:33:01;;;;;;;0.60;0.40;;;25.40;1.00;;;;;;2611619;47;20519;-59
2024/03/25 11:35:28;;;;;;;0.60;0.40;;;25.40;1.00;;;;;;2612841;39;20698;-59
2024/03/25 11:37:54;;;;;;;0.60;0.50;;;25.40;1.00;;;;;;2611375;47;20411;-61
2024/03/25 11:40:20;;;;;;;0.60;0.40;;;25.40;1.00;;;;;;2612035;39;20798;-60
2024/03/25 11:42:46;;;;;;;0.60;0.40;;;25.40;1.00;;;;;;2612066;47;20412;-60
2024/03/25 11:45:20;;;;;;;0.60;0.43;;;25.30;1.00;;;;;;2612048;47;20419;-59
2024/03/25 11:47:48;;;;;;;1.17;1.13;;;25.40;1.00;;;;;;2612539;54;20442;-60
2024/03/25 11:50:16;;;;;;;0.60;0.30;;;25.30;1.00;;;;;;2612236;54;20414;-60
2024/03/25 11:52:42;;;;;;;1.13;1.03;;;25.40;1.00;;;;;;2612656;54;20439;-60
2024/03/25 11:55:09;;;;;;;0.60;0.40;;;25.30;1.00;;;;;;2611787;54;20984;-60
2024/03/25 11:57:36;;;;;;;0.60;0.40;;;25.30;1.00;;;;;;2611112;47;20423;-63
2024/03/25 12:00:05;;;;;;;0.60;0.50;;;25.30;1.00;;;;;;2611699;54;20514;-59
2024/03/25 12:02:31;;;;;;;0.60;0.40;;;25.30;1.00;;;;;;2609292;54;20411;-60
2024/03/25 12:04:58;;;;;;;0.60;0.40;;;25.30;1.00;;;;;;2611761;54;20415;-60
2024/03/25 12:07:24;;;;;;;0.60;0.50;;;25.30;1.00;;;;;;2611280;47;20441;-60
2024/03/25 12:12:39;;;;;;;0.60;0.40;;;25.40;1.00;;;;;;2611510;54;20177;-60
2024/03/25 12:15:06;;;;;;;0.60;0.40;;;25.40;1.00;;;;;;2611877;54;20937;-60
2024/03/25 12:17:33;;;;;;;0.60;0.40;;;25.40;1.00;;;;;;2611822;31;20907;-60
2024/03/25 12:20:13;;;;;;;0.60;0.40;;;25.40;1.00;;;;;;2611327;54;20965;-59
2024/03/25 12:22:40;;;;;;;0.60;0.40;;;25.40;1.00;;;;;;2611375;54;20426;-60
2024/03/25 12:25:07;;;;;;;0.60;0.40;;;25.40;1.00;;;;;;2612295;39;20795;-64
2024/03/25 12:27:34;;;;;;;0.60;0.40;;;25.40;1.00;;;;;;2612343;54;20509;-64
2024/03/25 12:30:10;;;;;;;0.60;0.40;;;25.40;1.00;;;;;;2611608;54;20991;-63
2024/03/25 12:32:43;;;;;;;0.60;0.40;;;25.40;1.00;;;;;;2611006;54;20400;-64
2024/03/25 12:35:14;;;;;;;0.60;0.30;;;25.50;1.00;;;;;;2611630;39;20478;-66
2024/03/25 12:37:41;;;;;;;0.60;0.40;;;25.50;1.00;;;;;;2612689;54;20785;-64
2024/03/25 12:40:09;;;;;;;0.60;0.40;;;25.50;1.00;;;;;;2612709;50;20427;-64
2024/03/25 12:42:35;;;;;;;1.57;1.47;;;25.50;1.00;;;;;;2612356;54;20421;-64
2024/03/25 12:45:01;;;;;;;0.60;0.60;;;25.50;1.00;;;;;;2611793;39;20917;-60
2024/03/25 12:47:26;;;;;;;0.60;0.40;;;25.40;1.00;;;;;;2612704;31;20853;-61
2024/03/25 12:49:52;;;;;;;0.60;0.40;;;25.30;1.00;;;;;;2611197;54;20427;-61
2024/03/25 12:52:18;;;;;;;0.60;0.40;;;25.20;1.00;;;;;;2611791;54;20201;-59
2024/03/25 12:54:44;;;;;;;0.60;0.30;;;25.00;1.00;;;;;;2613022;54;20675;-60
2024/03/25 12:57:11;;;;;;;0.60;0.30;;;24.90;1.00;;;;;;2611210;39;20467;-61
2024/03/25 12:59:36;;;;;;;0.60;0.40;;;24.90;1.00;;;;;;2612410;54;20935;-60
2024/03/25 13:02:02;;;;;;;0.60;0.40;;;24.70;1.00;;;;;;2610528;54;20444;-62
2024/03/25 13:04:28;;;;;;;0.60;0.30;;;24.70;1.00;;;;;;2611711;54;20173;-61
2024/03/25 13:06:54;;;;;;;0.60;0.40;;;24.60;1.00;;;;;;2612413;54;20404;-62